createdAt,value
2022-08-26T00:00:53.163Z,95190.72
2022-08-26T00:03:20.175Z,95192.34
2022-08-26T00:05:47.971Z,95186.81
2022-08-26T00:08:15.504Z,95190.38
2022-08-26T00:10:42.882Z,95191.53
2022-08-26T00:13:10.915Z,95189.56
2022-08-26T00:15:39.338Z,95180.88
2022-08-26T00:18:21.844Z,95189.16
2022-08-26T00:20:48.747Z,95186.41
2022-08-26T00:23:15.596Z,95187.59
2022-08-26T00:25:43.264Z,95184.03
2022-08-26T00:28:10.302Z,95186.41
2022-08-26T00:30:38.188Z,95189.16
2022-08-26T00:33:05.267Z,95184.47
2022-08-26T00:35:33.592Z,95184.47
2022-08-26T00:38:00.430Z,95184.41
2022-08-26T00:40:30.133Z,95181.28
2022-08-26T00:42:57.476Z,95187.19
2022-08-26T00:45:24.375Z,95192.31
2022-08-26T00:48:01.071Z,95194.69
2022-08-26T00:50:33.325Z,95188.78
2022-08-26T00:53:03.467Z,95184.41
2022-08-26T00:55:38.381Z,95187.56
2022-08-26T00:58:06.756Z,95186.78
2022-08-26T01:00:33.799Z,95185.19
2022-08-26T01:03:02.960Z,95184.41
2022-08-26T01:05:31.935Z,95184.03
2022-08-26T01:07:58.585Z,95189.94
2022-08-26T01:10:29.199Z,95190.31
2022-08-26T01:13:00.307Z,95185.97
2022-08-26T01:15:32.931Z,95182.81
2022-08-26T01:18:00.439Z,95185.97
2022-08-26T01:20:39.610Z,95178.84
2022-08-26T01:23:08.626Z,95181.94
2022-08-26T01:25:40.831Z,95181.19
2022-08-26T01:28:19.943Z,95189.84
2022-08-26T01:30:48.302Z,95182.72
2022-08-26T01:33:19.158Z,95181.53
2022-08-26T01:35:46.829Z,95185.06
2022-08-26T01:38:16.275Z,95181.91
2022-08-26T01:40:43.441Z,95183.47
2022-08-26T01:43:16.953Z,95190.53
2022-08-26T01:45:46.792Z,95188.97
2022-08-26T01:48:20.998Z,95186.19
2022-08-26T01:50:48.161Z,95187.75
2022-08-26T01:53:18.112Z,95191.28
2022-08-26T01:55:48.140Z,95193.66
2022-08-26T01:58:23.495Z,95187.31
2022-08-26T02:00:51.050Z,95184.94
2022-08-26T02:03:18.698Z,95195.94
2022-08-26T02:05:51.405Z,95187.25
2022-08-26T02:08:24.676Z,95186.47
2022-08-26T02:10:54.785Z,95194.34
2022-08-26T02:13:22.990Z,95193.53
2022-08-26T02:15:52.456Z,95185.69
2022-08-26T02:18:19.617Z,95187.25
2022-08-26T02:20:46.284Z,95189.59
2022-08-26T02:23:12.951Z,95186.03
2022-08-26T02:26:09.930Z,95181.28
2022-08-26T02:28:46.455Z,95184.03
2022-08-26T02:31:13.233Z,95178.13
2022-08-26T02:33:43.039Z,95184.81
2022-08-26T02:36:10.303Z,95187.16
2022-08-26T02:38:38.678Z,95184.78
2022-08-26T02:41:06.341Z,95182.03
2022-08-26T02:43:34.724Z,95191.06
2022-08-26T02:46:02.446Z,95189.88
2022-08-26T02:48:30.199Z,95190.28
2022-08-26T02:50:59.876Z,95185.53
2022-08-26T02:53:26.495Z,95186.31
2022-08-26T02:55:54.489Z,95182.72
2022-08-26T02:58:21.090Z,95181.53
2022-08-26T03:00:52.626Z,95187.06
2022-08-26T03:03:20.086Z,95182.31
2022-08-26T03:05:49.151Z,95187.41
2022-08-26T03:08:15.817Z,95181.47
2022-08-26T03:10:42.393Z,95181.09
2022-08-26T03:13:09.231Z,95184.56
2022-08-26T03:15:35.911Z,95178.66
2022-08-26T03:18:04.018Z,95170.78
2022-08-26T03:20:31.362Z,95171.94
2022-08-26T03:22:58.004Z,95173.50
2022-08-26T03:25:26.047Z,95166.81
2022-08-26T03:27:53.582Z,95168.78
2022-08-26T03:30:22.773Z,95160.09
2022-08-26T03:32:49.355Z,95162.44
2022-08-26T03:35:16.666Z,95162.81
2022-08-26T03:37:43.360Z,95162.81
2022-08-26T03:40:11.152Z,95161.63
2022-08-26T03:42:39.007Z,95167.13
2022-08-26T03:45:08.312Z,95167.13
2022-08-26T03:47:35.012Z,95167.13
2022-08-26T03:50:06.899Z,95165.56
2022-08-26T03:52:33.689Z,95165.56
2022-08-26T03:55:00.475Z,95155.72
2022-08-26T03:57:27.269Z,95163.19
2022-08-26T03:59:54.511Z,95160.81
2022-08-26T04:02:21.184Z,95157.25
2022-08-26T04:04:47.813Z,95156.84
2022-08-26T04:07:14.781Z,95159.97
2022-08-26T04:09:41.504Z,95161.56
2022-08-26T04:12:08.650Z,95158.38
2022-08-26T04:14:35.273Z,95159.94
2022-08-26T04:17:05.017Z,95167.75
2022-08-26T04:19:32.455Z,95170.81
2022-08-26T04:21:59.943Z,95176.00
2022-08-26T04:24:27.791Z,95171.28
2022-08-26T04:26:54.790Z,95174.47
2022-08-26T04:29:25.321Z,95163.41
2022-08-26T04:31:55.729Z,95165.38
2022-08-26T04:34:24.226Z,95168.53
2022-08-26T04:36:54.067Z,95169.72
2022-08-26T04:39:20.605Z,95168.53
2022-08-26T04:41:50.217Z,95166.97
2022-08-26T04:44:18.393Z,95168.53
2022-08-26T04:46:45.137Z,95161.06
2022-08-26T04:49:12.705Z,95165.81
2022-08-26T04:51:40.176Z,95166.59
2022-08-26T04:54:07.216Z,95169.38
2022-08-26T04:56:37.377Z,95176.09
2022-08-26T04:59:07.240Z,95171.81
2022-08-26T05:01:38.768Z,95171.81
2022-08-26T05:04:08.128Z,95170.25
2022-08-26T05:06:37.046Z,95174.63
2022-08-26T05:09:04.408Z,95178.19
2022-08-26T05:11:31.023Z,95173.50
2022-08-26T05:14:01.610Z,95186.13
2022-08-26T05:16:28.972Z,95185.44
2022-08-26T05:18:56.283Z,95187.41
2022-08-26T05:21:26.363Z,95189.81
2022-08-26T05:23:53.786Z,95192.59
2022-08-26T05:26:23.310Z,95187.53
2022-08-26T05:28:50.479Z,95184.41
2022-08-26T05:31:27.448Z,95182.88
2022-08-26T05:33:55.222Z,95194.34
2022-08-26T05:36:24.141Z,95198.66
2022-08-26T05:38:54.119Z,95195.59
2022-08-26T05:41:24.015Z,95194.44
2022-08-26T05:43:52.049Z,95190.53
2022-08-26T05:46:18.743Z,95196.03
2022-08-26T05:48:45.523Z,95192.97
2022-08-26T05:51:14.824Z,95193.03
2022-08-26T05:53:43.995Z,95191.50
2022-08-26T05:56:22.645Z,95195.84
2022-08-26T05:58:49.251Z,95192.31
2022-08-26T06:01:22.213Z,95200.22
2022-08-26T06:03:52.680Z,95197.09
2022-08-26T06:06:27.410Z,95198.69
2022-08-26T06:08:57.392Z,95201.06
2022-08-26T06:11:25.227Z,95205.38
2022-08-26T06:13:53.533Z,95204.63
2022-08-26T06:16:23.522Z,95199.94
2022-08-26T06:18:52.524Z,95196.00
2022-08-26T06:21:29.261Z,95198.38
2022-08-26T06:24:00.670Z,95205.84
2022-08-26T06:26:27.944Z,95207.84
2022-08-26T06:28:55.068Z,95200.34
2022-08-26T06:31:23.162Z,95202.69
2022-08-26T06:33:50.552Z,95201.91
2022-08-26T06:36:19.248Z,95209.00
2022-08-26T06:38:47.888Z,95205.06
2022-08-26T06:41:15.105Z,95217.69
2022-08-26T06:43:41.754Z,95198.75
2022-08-26T06:46:12.184Z,95207.03
2022-08-26T06:48:39.254Z,95195.97
2022-08-26T06:51:11.736Z,95199.16
2022-08-26T06:53:39.455Z,95197.16
2022-08-26T06:56:09.837Z,95201.09
2022-08-26T06:58:39.125Z,95205.44
2022-08-26T07:01:26.372Z,95197.94
2022-08-26T07:03:56.988Z,95209.78
2022-08-26T07:06:24.938Z,95202.28
2022-08-26T07:08:53.648Z,95206.59
2022-08-26T07:11:20.718Z,95204.22
2022-08-26T07:13:47.884Z,95208.13
2022-08-26T07:16:16.409Z,95202.56
2022-08-26T07:18:44.768Z,95206.06
2022-08-26T07:21:14.226Z,95210.34
2022-08-26T07:23:41.209Z,95207.19
2022-08-26T07:26:11.948Z,95210.28
2022-08-26T07:28:38.963Z,95207.88
2022-08-26T07:31:10.050Z,95202.69
2022-08-26T07:33:38.265Z,95205.38
2022-08-26T07:36:07.103Z,95214.81
2022-08-26T07:38:33.895Z,95213.63
2022-08-26T07:41:00.887Z,95207.56
2022-08-26T07:43:28.884Z,95215.00
2022-08-26T07:45:56.433Z,95208.97
2022-08-26T07:48:24.419Z,95204.09
2022-08-26T07:50:51.017Z,95199.25
2022-08-26T07:53:21.586Z,95205.09
2022-08-26T07:55:51.563Z,95196.66
2022-08-26T07:58:18.891Z,95195.78
2022-08-26T08:00:46.136Z,95194.03
2022-08-26T08:03:13.800Z,95201.06
2022-08-26T08:05:41.370Z,95202.72
2022-08-26T08:08:26.515Z,95202.13
2022-08-26T08:10:55.552Z,95200.06
2022-08-26T08:13:23.631Z,95211.09
2022-08-26T08:15:51.110Z,95194.31
2022-08-26T08:18:20.470Z,95192.66
2022-08-26T08:20:54.550Z,95198.94
2022-08-26T08:23:32.489Z,95194.06
2022-08-26T08:26:08.315Z,95195.97
2022-08-26T08:28:35.863Z,95200.59
2022-08-26T08:31:03.369Z,95194.56
2022-08-26T08:33:30.182Z,95193.66
2022-08-26T08:35:58.509Z,95200.66
2022-08-26T08:38:25.708Z,95201.41
2022-08-26T08:40:53.221Z,95203.16
2022-08-26T08:43:38.334Z,95195.72
2022-08-26T08:46:12.628Z,95190.09
2022-08-26T08:48:43.678Z,95191.19
2022-08-26T08:51:26.051Z,95189.84
2022-08-26T08:53:54.991Z,95194.44
2022-08-26T08:56:28.924Z,95192.38
2022-08-26T08:59:00.843Z,95196.59
2022-08-26T09:01:42.369Z,95187.84
2022-08-26T09:04:23.394Z,95192.47
2022-08-26T09:06:55.723Z,95194.78
2022-08-26T09:09:37.513Z,95193.16
2022-08-26T09:12:07.637Z,95194.16
2022-08-26T09:14:35.999Z,95187.38
2022-08-26T09:17:15.848Z,95192.81
2022-08-26T09:19:52.969Z,95191.13
2022-08-26T09:22:32.311Z,95191.84
2022-08-26T09:24:59.681Z,95186.84
2022-08-26T09:27:45.701Z,95192.50
2022-08-26T09:30:22.548Z,95189.28
2022-08-26T09:33:10.002Z,95181.78
2022-08-26T09:35:40.038Z,95185.34
2022-08-26T09:38:28.032Z,95182.06
2022-08-26T09:41:07.197Z,95180.50
2022-08-26T09:43:35.432Z,95178.94
2022-08-26T09:46:18.255Z,95182.78
2022-08-26T09:48:45.340Z,95173.06
2022-08-26T09:51:20.687Z,95171.22
2022-08-26T09:53:56.108Z,95182.00
2022-08-26T09:56:35.881Z,95174.50
2022-08-26T09:59:03.890Z,95170.06
2022-08-26T10:01:42.530Z,95171.72
2022-08-26T10:04:13.642Z,95168.56
2022-08-26T10:06:43.595Z,95158.66
2022-08-26T10:09:13.798Z,95158.81
2022-08-26T10:11:48.901Z,95160.59
2022-08-26T10:14:21.712Z,95154.66
2022-08-26T10:17:23.589Z,95153.34
2022-08-26T10:20:22.467Z,95146.28
2022-08-26T10:22:52.372Z,95135.66
2022-08-26T10:25:24.567Z,95145.28
2022-08-26T10:28:12.368Z,95135.00
2022-08-26T10:30:51.095Z,95137.69
2022-08-26T10:33:18.324Z,95128.50
2022-08-26T10:35:53.971Z,95132.88
2022-08-26T10:38:27.494Z,95131.28
2022-08-26T10:41:09.721Z,95129.31
2022-08-26T10:43:41.189Z,95132.88
2022-08-26T10:46:19.626Z,95131.16
2022-08-26T10:49:03.275Z,95124.88
2022-08-26T10:51:39.458Z,95125.25
2022-08-26T10:54:15.774Z,95123.25
2022-08-26T10:57:22.631Z,95116.09
2022-08-26T11:00:11.321Z,95112.13
2022-08-26T11:02:47.082Z,95103.63
2022-08-26T11:05:20.841Z,95107.44
2022-08-26T11:07:48.861Z,95098.59
2022-08-26T11:10:18.999Z,95091.88
2022-08-26T11:12:49.142Z,95089.38
2022-08-26T11:15:25.229Z,95086.19
2022-08-26T11:17:51.808Z,95082.44
2022-08-26T11:20:27.963Z,95084.72
2022-08-26T11:22:56.204Z,95080.94
2022-08-26T11:25:30.061Z,95073.97
2022-08-26T11:27:59.351Z,95069.28
2022-08-26T11:30:34.047Z,95063.06
2022-08-26T11:33:00.917Z,95073.44
2022-08-26T11:35:27.483Z,95071.19
2022-08-26T11:37:57.078Z,95063.09
2022-08-26T11:40:36.987Z,95063.59
2022-08-26T11:43:07.815Z,95061.66
2022-08-26T11:45:37.913Z,95066.53
2022-08-26T11:48:22.891Z,95054.13
2022-08-26T11:51:04.293Z,95055.31
2022-08-26T11:53:33.876Z,95055.59
2022-08-26T11:56:04.873Z,95056.06
2022-08-26T11:58:32.088Z,95047.38
2022-08-26T12:01:05.044Z,95047.28
2022-08-26T12:03:50.098Z,95045.75
2022-08-26T12:09:20.544Z,95039.63
2022-08-26T12:11:47.183Z,95036.81
2022-08-26T12:14:20.429Z,95041.16
2022-08-26T12:16:47.254Z,95029.28
2022-08-26T12:19:32.700Z,95028.28
2022-08-26T12:22:06.485Z,95036.09
2022-08-26T12:24:33.566Z,95024.56
2022-08-26T12:27:16.918Z,95032.59
2022-08-26T12:29:44.124Z,95024.09
2022-08-26T12:32:17.883Z,95030.75
2022-08-26T12:34:48.265Z,95017.19
2022-08-26T12:37:15.536Z,95023.59
2022-08-26T12:39:44.482Z,95021.56
2022-08-26T12:42:13.750Z,95018.09
2022-08-26T12:44:59.423Z,95011.75
2022-08-26T12:47:35.140Z,94999.56
2022-08-26T12:50:20.712Z,95002.69
2022-08-26T12:53:13.820Z,94994.66
2022-08-26T12:55:45.273Z,94993.69
2022-08-26T12:58:32.070Z,94994.34
2022-08-26T13:01:04.484Z,94989.41
2022-08-26T13:03:33.795Z,94988.94
2022-08-26T13:06:22.026Z,94994.47
2022-08-26T13:09:07.562Z,94985.91
2022-08-26T13:11:54.045Z,94990.91
2022-08-26T13:14:24.012Z,94973.81
2022-08-26T13:16:52.396Z,94974.44
2022-08-26T13:19:22.372Z,94986.22
2022-08-26T13:21:54.844Z,94970.41
2022-08-26T13:24:34.389Z,94966.22
2022-08-26T13:27:01.579Z,94957.38
2022-08-26T13:29:28.661Z,94947.72
2022-08-26T13:31:55.493Z,94943.69
2022-08-26T13:34:23.850Z,94953.78
2022-08-26T13:36:52.705Z,94952.56
2022-08-26T13:39:19.779Z,94955.16
2022-08-26T13:41:47.029Z,94956.56
2022-08-26T13:44:13.802Z,94948.25
2022-08-26T13:46:40.748Z,94950.47
2022-08-26T13:49:07.908Z,94949.56
2022-08-26T13:51:34.721Z,94952.25
2022-08-26T13:54:01.435Z,94950.53
2022-08-26T13:56:29.223Z,94950.22
2022-08-26T13:58:56.280Z,94944.25
2022-08-26T14:01:23.647Z,94939.00
2022-08-26T14:03:50.284Z,94938.41
2022-08-26T14:06:16.914Z,94944.22
2022-08-26T14:08:43.511Z,94941.56
2022-08-26T14:11:10.728Z,94945.84
2022-08-26T14:13:37.436Z,94939.94
2022-08-26T14:16:09.049Z,94941.31
2022-08-26T14:18:41.812Z,94942.81
2022-08-26T14:21:12.787Z,94934.19
2022-08-26T14:23:39.701Z,94937.44
2022-08-26T14:26:06.314Z,94934.31
2022-08-26T14:28:32.951Z,94936.66
2022-08-26T14:30:59.676Z,94934.09
2022-08-26T14:33:29.928Z,94929.13
2022-08-26T14:35:56.460Z,94922.22
2022-08-26T14:38:23.041Z,94937.03
2022-08-26T14:40:49.693Z,94931.28
2022-08-26T14:43:16.394Z,94932.75
2022-08-26T14:45:44.385Z,94938.56
2022-08-26T14:48:11.086Z,94935.16
2022-08-26T14:50:37.661Z,94928.69
2022-08-26T14:53:04.303Z,94928.88
2022-08-26T14:55:34.171Z,94922.38
2022-08-26T14:58:00.992Z,94915.38
2022-08-26T15:00:27.687Z,94911.38
2022-08-26T15:02:54.527Z,94911.22
2022-08-26T15:05:21.417Z,94914.31
2022-08-26T15:07:47.963Z,94910.41
2022-08-26T15:10:15.916Z,94901.25
2022-08-26T15:12:43.207Z,94898.09
2022-08-26T15:15:11.995Z,94906.00
2022-08-26T15:17:39.532Z,94898.34
2022-08-26T15:20:07.287Z,94896.53
2022-08-26T15:22:34.156Z,94892.75
2022-08-26T15:25:01.101Z,94879.44
2022-08-26T15:27:27.963Z,94890.16
2022-08-26T15:29:54.649Z,94895.22
2022-08-26T15:32:21.336Z,94882.97
2022-08-26T15:34:48.021Z,94884.66
2022-08-26T15:37:17.486Z,94887.28
2022-08-26T15:39:44.031Z,94883.09
2022-08-26T15:42:10.906Z,94874.97
2022-08-26T15:44:37.588Z,94878.19
2022-08-26T15:47:04.277Z,94872.34
2022-08-26T15:49:30.892Z,94874.66
2022-08-26T15:51:57.426Z,94863.16
2022-08-26T15:54:24.411Z,94868.09
2022-08-26T15:56:51.386Z,94864.41
2022-08-26T15:59:19.669Z,94865.00
2022-08-26T16:01:46.723Z,94862.47
2022-08-26T16:04:13.574Z,94862.47
2022-08-26T16:06:41.545Z,94869.25
2022-08-26T16:09:08.737Z,94866.94
2022-08-26T16:11:35.789Z,94868.97
2022-08-26T16:14:02.989Z,94862.25
2022-08-26T16:16:29.679Z,94870.91
2022-08-26T16:18:56.312Z,94866.31
2022-08-26T16:21:26.151Z,94865.16
2022-08-26T16:23:52.737Z,94863.28
2022-08-26T16:26:24.290Z,94868.56
2022-08-26T16:28:50.863Z,94855.34
2022-08-26T16:31:18.024Z,94858.44
2022-08-26T16:33:44.655Z,94866.59
2022-08-26T16:36:12.119Z,94870.69
2022-08-26T16:38:39.293Z,94878.22
2022-08-26T16:41:07.127Z,94867.06
2022-08-26T16:43:33.990Z,94869.31
2022-08-26T16:46:00.643Z,94881.31
2022-08-26T16:48:27.407Z,94877.13
2022-08-26T16:50:54.017Z,94878.22
2022-08-26T16:53:20.738Z,94883.03
2022-08-26T16:55:48.683Z,94887.13
2022-08-26T16:58:15.589Z,94878.22
2022-08-26T17:00:42.972Z,94888.50
2022-08-26T17:03:09.525Z,94890.69
2022-08-26T17:05:36.606Z,94883.22
2022-08-26T17:08:03.898Z,94893.84
2022-08-26T17:10:31.021Z,94893.75
2022-08-26T17:12:57.951Z,94886.44
2022-08-26T17:15:24.549Z,94888.81
2022-08-26T17:17:52.313Z,94890.41
2022-08-26T17:20:19.519Z,94889.41
2022-08-26T17:22:48.361Z,94895.00
2022-08-26T17:25:22.048Z,94891.63
2022-08-26T17:27:48.795Z,94886.19
2022-08-26T17:30:16.009Z,94885.78
2022-08-26T17:32:42.836Z,94893.31
2022-08-26T17:35:11.076Z,94889.56
2022-08-26T17:37:40.231Z,94892.38
2022-08-26T17:40:10.239Z,94887.16
2022-08-26T17:42:38.743Z,94895.19
2022-08-26T17:45:06.043Z,94888.06
2022-08-26T17:47:33.049Z,94897.28
2022-08-26T17:49:59.677Z,94900.78
2022-08-26T17:52:26.238Z,94914.13
2022-08-26T17:54:54.501Z,94915.41
2022-08-26T17:57:21.084Z,94923.09
2022-08-26T17:59:47.680Z,94930.56
2022-08-26T18:02:14.417Z,94925.69
2022-08-26T18:04:41.105Z,94933.94
2022-08-26T18:07:07.644Z,94939.69
2022-08-26T18:09:34.437Z,94941.00
2022-08-26T18:12:01.216Z,94946.31
2022-08-26T18:14:27.894Z,94947.91
2022-08-26T18:16:54.427Z,94949.06
2022-08-26T18:19:21.243Z,94947.78
2022-08-26T18:21:47.802Z,94950.53
2022-08-26T18:24:14.638Z,94958.38
2022-08-26T18:26:42.698Z,94965.72
2022-08-26T18:29:09.363Z,94959.22
2022-08-26T18:31:35.998Z,94963.81
2022-08-26T18:34:02.786Z,94960.41
2022-08-26T18:36:33.729Z,94957.81
2022-08-26T18:39:01.129Z,94960.00
2022-08-26T18:41:29.869Z,94963.34
2022-08-26T18:43:58.301Z,94966.31
2022-08-26T18:46:26.438Z,94974.78
2022-08-26T18:48:55.587Z,94972.94
2022-08-26T18:51:25.633Z,94980.59
2022-08-26T18:53:53.068Z,94974.31
2022-08-26T18:56:19.778Z,94973.25
2022-08-26T18:58:46.722Z,94970.97
2022-08-26T19:01:14.421Z,94980.63
2022-08-26T19:03:41.152Z,94982.31
2022-08-26T19:06:08.534Z,94970.47
2022-08-26T19:08:35.108Z,94970.22
2022-08-26T19:11:02.196Z,94973.50
2022-08-26T19:13:28.936Z,94969.56
2022-08-26T19:15:55.686Z,94972.44
2022-08-26T19:18:22.220Z,94984.41
2022-08-26T19:20:48.876Z,94991.56
2022-08-26T19:23:30.765Z,94992.41
2022-08-26T19:25:58.270Z,94995.25
2022-08-26T19:28:25.172Z,94996.13
2022-08-26T19:30:53.348Z,95006.06
2022-08-26T19:33:20.344Z,95012.13
2022-08-26T19:35:47.272Z,95050.31
2022-08-26T19:38:14.044Z,95051.66
2022-08-26T19:40:41.111Z,95039.03
2022-08-26T19:43:07.936Z,95036.88
2022-08-26T19:45:35.252Z,95044.59
2022-08-26T19:48:02.399Z,95056.66
2022-08-26T19:50:31.064Z,95043.78
2022-08-26T19:52:58.652Z,95049.47
2022-08-26T19:55:26.254Z,95062.72
2022-08-26T19:57:52.840Z,95068.03
2022-08-26T20:00:23.768Z,95059.78
2022-08-26T20:02:51.428Z,95043.22
2022-08-26T20:05:20.553Z,95033.00
2022-08-26T20:07:47.950Z,95031.06
2022-08-26T20:10:18.306Z,95033.16
2022-08-26T20:12:44.862Z,95034.41
2022-08-26T20:15:12.983Z,95031.66
2022-08-26T20:17:41.077Z,95042.03
2022-08-26T20:20:13.304Z,95056.34
2022-08-26T20:22:55.365Z,95072.22
2022-08-26T20:25:22.261Z,95078.94
2022-08-26T20:27:48.849Z,95068.75
2022-08-26T20:30:15.668Z,95055.38
2022-08-26T20:32:43.130Z,95046.34
2022-08-26T20:35:12.927Z,95032.59
2022-08-26T20:37:40.339Z,95021.97
2022-08-26T20:40:07.955Z,95019.69
2022-08-26T20:42:35.048Z,95017.41
2022-08-26T20:45:01.746Z,95021.84
2022-08-26T20:47:28.474Z,95027.44
2022-08-26T20:49:55.855Z,95037.00
2022-08-26T20:52:22.423Z,95033.09
2022-08-26T20:54:49.171Z,95028.41
2022-08-26T20:57:15.790Z,95022.13
2022-08-26T20:59:42.342Z,95026.50
2022-08-26T21:02:09.117Z,95032.09
2022-08-26T21:04:35.703Z,95036.09
2022-08-26T21:07:02.365Z,95050.31
2022-08-26T21:09:29.070Z,95059.88
2022-08-26T21:11:57.395Z,95064.63
2022-08-26T21:14:25.821Z,95062.28
2022-08-26T21:16:53.270Z,95054.81
2022-08-26T21:19:19.840Z,95048.88
2022-08-26T21:21:48.051Z,95055.59
2022-08-26T21:24:15.230Z,95050.09
2022-08-26T21:26:42.480Z,95056.84
2022-08-26T21:29:09.336Z,95061.59
2022-08-26T21:31:37.041Z,95065.16
2022-08-26T21:34:03.795Z,95066.00
2022-08-26T21:36:30.486Z,95052.59
2022-08-26T21:39:00.608Z,95063.66
2022-08-26T21:41:28.822Z,95063.66
2022-08-26T21:43:57.582Z,95058.94
2022-08-26T21:46:25.649Z,95069.22
2022-08-26T21:48:59.316Z,95085.78
2022-08-26T21:51:29.106Z,95101.63
2022-08-26T21:53:57.683Z,95101.22
2022-08-26T21:56:26.350Z,95094.91
2022-08-26T21:58:54.627Z,95097.34
2022-08-26T22:01:24.331Z,95098.13
2022-08-26T22:03:51.549Z,95094.59
2022-08-26T22:06:20.814Z,95089.50
2022-08-26T22:08:47.598Z,95091.06
2022-08-26T22:11:14.627Z,95091.47
2022-08-26T22:13:43.292Z,95088.31
2022-08-26T22:16:10.746Z,95090.66
2022-08-26T22:18:38.371Z,95090.66
2022-08-26T22:21:10.557Z,95097.75
2022-08-26T22:23:38.101Z,95095.38
2022-08-26T22:26:07.155Z,95096.16
2022-08-26T22:28:35.333Z,95099.31
2022-08-26T22:31:02.119Z,95107.97
2022-08-26T22:33:29.291Z,95103.66
2022-08-26T22:35:56.028Z,95098.53
2022-08-26T22:38:22.668Z,95104.84
2022-08-26T22:40:54.690Z,95114.28
2022-08-26T22:43:21.561Z,95101.66
2022-08-26T22:45:49.562Z,95106.78
2022-08-26T22:48:19.133Z,95100.47
2022-08-26T22:50:47.490Z,95112.66
2022-08-26T22:53:16.145Z,95109.53
2022-08-26T22:55:43.830Z,95107.16
2022-08-26T22:58:12.090Z,95106.38
2022-08-26T23:00:39.037Z,95104.00
2022-08-26T23:03:07.213Z,95114.66
2022-08-26T23:05:34.078Z,95111.91
2022-08-26T23:08:00.967Z,95117.41
2022-08-26T23:10:27.668Z,95110.34
2022-08-26T23:12:54.259Z,95113.47
2022-08-26T23:15:21.262Z,95114.25
2022-08-26T23:17:55.870Z,95112.31
2022-08-26T23:20:26.764Z,95111.50
2022-08-26T23:22:54.311Z,95113.47
2022-08-26T23:25:22.062Z,95117.41
2022-08-26T23:27:51.832Z,95113.88
2022-08-26T23:30:22.226Z,95128.06
2022-08-26T23:32:49.262Z,95131.97
2022-08-26T23:35:16.812Z,95133.19
2022-08-26T23:37:44.880Z,95135.13
2022-08-26T23:40:26.738Z,95140.63
2022-08-26T23:42:56.087Z,95139.47
2022-08-26T23:45:24.704Z,95141.41
2022-08-26T23:47:52.070Z,95128.03
2022-08-26T23:50:21.051Z,95141.03
2022-08-26T23:52:48.319Z,95131.59
2022-08-26T23:55:15.444Z,95141.03
2022-08-26T23:57:42.807Z,95144.94
